Alderson, Oklahoma
Current Conditions -  °F | °C
As of 9:13 AM on Monday 22 Dec 2014 (Local Time) from KMLC Reporting Station
Overcast Overcast  
Wind Chill: 12°   Ceiling: 2800
Heat Index: 12°   Visibility: 10mi
Dew Point:   Wind: 8mph
Humidity: 80%   Direction: 180°S
Pressure: 29.6"   Gusts: NA
Location:  34.9°N, 95.69°W
Report Text: KMLC 221513Z AUTO 18007KT 10SM FEW018 SCT023 OVC028 12/09 A2960 RMK AO2 T01220089
Loading
Personal Weather Stations






























Interactive Weather Map New forecast layout! Learn more

10-Day Weather Forecast

Advertisements
Track Severe Weather on mobile